createdAt,value
2022-12-15T00:00:50.283Z,79.80
2022-12-15T00:03:36.666Z,79.95
2022-12-15T00:06:23.095Z,79.59
2022-12-15T00:09:14.206Z,79.25
2022-12-15T00:12:00.677Z,79.62
2022-12-15T00:14:49.661Z,79.36
2022-12-15T00:17:35.364Z,79.65
2022-12-15T00:20:21.338Z,79.46
2022-12-15T00:23:07.184Z,79.29
2022-12-15T00:25:54.322Z,78.92
2022-12-15T00:28:40.090Z,78.94
2022-12-15T00:31:26.312Z,78.66
2022-12-15T00:34:12.459Z,79.13
2022-12-15T00:36:58.110Z,79.23
2022-12-15T00:39:29.416Z,78.79
2022-12-15T00:41:59.216Z,78.72
2022-12-15T00:44:29.748Z,79.20
2022-12-15T00:46:57.269Z,78.45
2022-12-15T00:49:44.417Z,78.49
2022-12-15T00:52:35.797Z,78.85
2022-12-15T00:55:23.911Z,78.24
2022-12-15T00:58:11.891Z,78.54
2022-12-15T01:00:57.764Z,78.69
2022-12-15T01:03:44.825Z,78.21
2022-12-15T01:06:33.079Z,78.27
2022-12-15T01:09:19.198Z,79.01
2022-12-15T01:12:05.749Z,78.98
2022-12-15T01:14:53.703Z,78.24
2022-12-15T01:17:39.390Z,78.92
2022-12-15T01:20:18.766Z,79.40
2022-12-15T01:22:48.420Z,79.66
2022-12-15T01:25:18.208Z,79.11
2022-12-15T01:27:47.039Z,79.59
2022-12-15T01:30:19.656Z,79.90
2022-12-15T01:32:47.962Z,80.52
2022-12-15T01:35:16.296Z,81.07
2022-12-15T01:37:50.251Z,81.11
2022-12-15T01:40:41.635Z,82.11
2022-12-15T01:43:14.088Z,82.36
2022-12-15T01:45:52.934Z,81.78
2022-12-15T01:48:26.517Z,82.00
2022-12-15T01:51:00.713Z,82.26
2022-12-15T01:53:31.227Z,83.02
2022-12-15T01:55:59.801Z,82.66
2022-12-15T01:58:28.765Z,82.82
2022-12-15T02:01:06.462Z,82.72
2022-12-15T02:03:35.581Z,82.57
2022-12-15T02:06:04.643Z,82.87
2022-12-15T02:08:33.627Z,82.45
2022-12-15T02:11:40.360Z,83.21
2022-12-15T02:14:13.410Z,83.42
2022-12-15T02:16:58.401Z,83.40
2022-12-15T02:19:56.403Z,83.30
2022-12-15T02:22:31.686Z,82.77
2022-12-15T02:25:16.067Z,82.23
2022-12-15T02:27:52.198Z,82.43
2022-12-15T02:30:38.475Z,81.93
2022-12-15T02:33:15.210Z,81.74
2022-12-15T02:35:54.358Z,81.01
2022-12-15T02:38:33.914Z,81.00
2022-12-15T02:41:03.385Z,80.66
2022-12-15T02:43:34.492Z,80.63
2022-12-15T02:46:14.690Z,80.26
2022-12-15T02:48:51.810Z,80.13
2022-12-15T02:51:30.261Z,80.11
2022-12-15T02:54:22.272Z,80.01
2022-12-15T02:57:04.040Z,79.50
2022-12-15T02:59:39.599Z,79.68
2022-12-15T03:02:10.287Z,79.30
2022-12-15T03:04:38.878Z,79.01
2022-12-15T03:07:12.254Z,78.56
2022-12-15T03:09:40.598Z,79.06
2022-12-15T03:12:10.564Z,78.70
2022-12-15T03:14:38.877Z,78.66
2022-12-15T03:17:09.547Z,78.65
2022-12-15T03:19:37.899Z,78.69
2022-12-15T03:22:06.861Z,78.57
2022-12-15T03:24:35.259Z,78.88
2022-12-15T03:27:04.108Z,78.83
2022-12-15T03:29:32.459Z,78.99
2022-12-15T03:32:00.994Z,78.81
2022-12-15T03:34:31.157Z,78.74
2022-12-15T03:36:59.879Z,79.01
2022-12-15T03:39:28.440Z,78.48
2022-12-15T03:41:56.806Z,78.24
2022-12-15T03:44:25.347Z,79.33
2022-12-15T03:46:57.211Z,79.10
2022-12-15T03:49:28.212Z,78.53
2022-12-15T03:51:58.215Z,78.21
2022-12-15T03:54:26.784Z,78.11
2022-12-15T03:56:55.402Z,78.33
2022-12-15T03:59:24.049Z,77.93
2022-12-15T04:01:52.614Z,78.26
2022-12-15T04:04:21.173Z,78.57
2022-12-15T04:06:49.694Z,78.35
2022-12-15T04:09:21.409Z,77.78
2022-12-15T04:11:49.907Z,77.62
2022-12-15T04:14:18.250Z,77.71
2022-12-15T04:16:46.610Z,77.48
2022-12-15T04:19:32.629Z,77.69
2022-12-15T04:22:02.677Z,78.05
2022-12-15T04:24:49.581Z,77.71
2022-12-15T04:27:37.498Z,77.50
2022-12-15T04:30:23.906Z,78.00
2022-12-15T04:33:09.463Z,78.09
2022-12-15T04:35:55.641Z,78.01
2022-12-15T04:38:49.997Z,77.75
2022-12-15T04:41:38.649Z,77.18
2022-12-15T04:44:25.055Z,77.79
2022-12-15T04:47:11.026Z,78.32
2022-12-15T04:49:57.045Z,77.86
2022-12-15T04:52:42.931Z,78.23
2022-12-15T04:55:28.699Z,78.44
2022-12-15T04:58:15.814Z,78.41
2022-12-15T05:01:01.771Z,77.46
2022-12-15T05:03:47.917Z,78.42
2022-12-15T05:06:33.893Z,78.50
2022-12-15T05:09:19.700Z,78.69
2022-12-15T05:12:05.729Z,78.51
2022-12-15T05:14:53.109Z,78.99
2022-12-15T05:17:41.580Z,79.33
2022-12-15T05:20:28.578Z,79.20
2022-12-15T05:23:14.643Z,79.36
2022-12-15T05:26:00.683Z,78.87
2022-12-15T05:28:46.579Z,79.23
2022-12-15T05:31:34.246Z,78.84
2022-12-15T05:34:05.778Z,79.23
2022-12-15T05:36:35.036Z,78.61
2022-12-15T05:39:05.201Z,78.01
2022-12-15T05:41:33.639Z,78.31
2022-12-15T05:44:02.357Z,78.76
2022-12-15T05:46:32.444Z,78.28
2022-12-15T05:49:01.050Z,78.72
2022-12-15T05:51:29.932Z,78.18
2022-12-15T05:53:58.351Z,77.60
2022-12-15T05:56:27.861Z,78.60
2022-12-15T05:59:00.328Z,77.74
2022-12-15T06:01:31.122Z,77.72
2022-12-15T06:04:03.959Z,76.39
2022-12-15T06:06:32.644Z,77.02
2022-12-15T06:09:01.048Z,76.55
2022-12-15T06:11:29.439Z,77.31
2022-12-15T06:13:58.764Z,77.30
2022-12-15T06:16:29.297Z,78.35
2022-12-15T06:19:01.951Z,78.17
2022-12-15T06:21:35.374Z,78.55
2022-12-15T06:24:04.215Z,79.15
2022-12-15T06:26:34.314Z,79.21
2022-12-15T06:29:03.936Z,79.23
2022-12-15T06:31:34.156Z,79.38
2022-12-15T06:34:05.677Z,79.17
2022-12-15T06:36:34.662Z,79.07
2022-12-15T06:39:04.481Z,78.96
2022-12-15T06:41:33.514Z,79.31
2022-12-15T06:44:04.836Z,79.66
2022-12-15T06:46:36.845Z,78.89
2022-12-15T06:49:06.910Z,78.81
2022-12-15T06:51:38.382Z,78.88
2022-12-15T06:54:06.805Z,78.82
2022-12-15T06:56:37.472Z,79.04
2022-12-15T06:59:07.365Z,78.77
2022-12-15T07:01:36.513Z,78.46
2022-12-15T07:04:06.564Z,78.27
2022-12-15T07:06:37.725Z,78.39
2022-12-15T07:09:10.560Z,78.29
2022-12-15T07:11:42.029Z,78.18
2022-12-15T07:14:13.640Z,77.63
2022-12-15T07:16:42.204Z,77.59
2022-12-15T07:19:20.849Z,77.40
2022-12-15T07:21:49.551Z,77.27
2022-12-15T07:24:17.896Z,77.19
2022-12-15T07:26:49.054Z,77.15
2022-12-15T07:29:22.849Z,77.04
2022-12-15T07:31:52.118Z,77.75
2022-12-15T07:34:22.022Z,77.83
2022-12-15T07:36:52.721Z,78.39
2022-12-15T07:39:21.540Z,78.20
2022-12-15T07:41:49.969Z,78.84
2022-12-15T07:44:18.765Z,77.88
2022-12-15T07:46:49.435Z,78.17
2022-12-15T07:49:18.030Z,78.15
2022-12-15T07:51:48.172Z,78.46
2022-12-15T07:54:18.240Z,78.41
2022-12-15T07:56:50.533Z,78.29
2022-12-15T07:59:20.723Z,77.91
2022-12-15T08:01:51.474Z,78.21
2022-12-15T08:04:20.001Z,77.87
2022-12-15T08:06:51.527Z,77.36
2022-12-15T08:09:20.411Z,77.39
2022-12-15T08:11:54.747Z,77.54
2022-12-15T08:14:26.132Z,77.86
2022-12-15T08:16:54.725Z,78.13
2022-12-15T08:19:23.308Z,77.14
2022-12-15T08:21:55.259Z,77.12
2022-12-15T08:24:23.822Z,77.51
2022-12-15T08:26:53.126Z,76.33
2022-12-15T08:29:50.083Z,76.82
2022-12-15T08:32:14.441Z,76.86
2022-12-15T08:34:43.829Z,76.29
2022-12-15T08:37:20.374Z,76.62
2022-12-15T08:39:49.166Z,76.04
2022-12-15T08:42:17.736Z,76.13
2022-12-15T08:44:49.718Z,76.16
2022-12-15T08:47:20.880Z,76.08
2022-12-15T08:49:50.399Z,75.98
2022-12-15T08:52:22.262Z,75.74
2022-12-15T08:54:51.795Z,75.11
2022-12-15T08:57:23.034Z,75.79
2022-12-15T08:59:51.397Z,75.92
2022-12-15T09:02:22.319Z,76.05
2022-12-15T09:04:53.205Z,75.22
2022-12-15T09:07:23.275Z,74.30
2022-12-15T09:09:51.680Z,74.53
2022-12-15T09:12:20.070Z,74.05
2022-12-15T09:14:48.548Z,74.73
2022-12-15T09:17:18.487Z,74.25
2022-12-15T09:19:46.942Z,75.03
2022-12-15T09:22:15.396Z,74.63
2022-12-15T09:24:47.022Z,74.48
2022-12-15T09:27:17.798Z,73.63
2022-12-15T09:29:46.321Z,73.82
2022-12-15T09:32:15.358Z,73.79
2022-12-15T09:34:43.678Z,74.57
2022-12-15T09:37:17.247Z,74.70
2022-12-15T09:39:48.843Z,74.44
2022-12-15T09:42:24.688Z,75.44
2022-12-15T09:45:00.936Z,74.43
2022-12-15T09:47:36.129Z,73.94
2022-12-15T09:50:09.248Z,73.71
2022-12-15T09:52:47.006Z,73.78
2022-12-15T09:55:22.959Z,72.92
2022-12-15T09:57:55.948Z,72.85
2022-12-15T10:00:27.397Z,72.99
2022-12-15T10:03:18.519Z,73.63
2022-12-15T10:06:16.733Z,73.44
2022-12-15T10:08:50.697Z,73.58
2022-12-15T10:11:34.223Z,74.11
2022-12-15T10:14:09.002Z,73.89
2022-12-15T10:16:45.329Z,74.16
2022-12-15T10:19:22.616Z,74.07
2022-12-15T10:21:54.147Z,73.39
2022-12-15T10:25:07.251Z,73.53
2022-12-15T10:27:27.696Z,73.71
2022-12-15T10:30:02.528Z,73.36
2022-12-15T10:32:50.470Z,73.46
2022-12-15T10:35:22.474Z,73.68
2022-12-15T10:37:52.227Z,73.35
2022-12-15T10:40:23.811Z,73.75
2022-12-15T10:42:53.784Z,73.48
2022-12-15T10:45:36.875Z,73.37
2022-12-15T10:48:13.655Z,73.51
2022-12-15T10:50:43.997Z,73.89
2022-12-15T10:53:37.474Z,73.68
2022-12-15T10:56:10.522Z,74.09
2022-12-15T10:58:51.865Z,74.11
2022-12-15T11:01:24.434Z,74.00
2022-12-15T11:03:54.511Z,74.01
2022-12-15T11:06:24.990Z,73.94
2022-12-15T11:08:58.052Z,73.95
2022-12-15T11:11:50.296Z,74.42
2022-12-15T11:14:24.308Z,74.13
2022-12-15T11:16:55.206Z,73.59
2022-12-15T11:19:32.032Z,74.16
2022-12-15T11:22:04.698Z,74.01
2022-12-15T11:24:40.158Z,73.99
2022-12-15T11:27:16.276Z,74.24
2022-12-15T11:30:00.336Z,73.52
2022-12-15T11:32:32.619Z,73.45
2022-12-15T11:35:01.501Z,73.35
2022-12-15T11:37:39.542Z,73.58
2022-12-15T11:40:21.079Z,73.79
2022-12-15T11:43:01.168Z,73.69
2022-12-15T11:45:38.470Z,73.67
2022-12-15T11:48:13.237Z,73.81
2022-12-15T11:50:43.495Z,73.10
2022-12-15T11:53:18.927Z,73.04
2022-12-15T11:55:56.164Z,73.52
2022-12-15T11:58:58.091Z,73.46
2022-12-15T12:01:52.580Z,73.65
2022-12-15T12:04:26.130Z,73.23
2022-12-15T12:07:05.006Z,72.62
2022-12-15T12:09:37.501Z,72.96
2022-12-15T12:12:13.675Z,73.28
2022-12-15T12:14:50.844Z,72.92
2022-12-15T12:17:28.419Z,72.71
2022-12-15T12:20:15.112Z,72.92
2022-12-15T12:22:48.482Z,73.34
2022-12-15T12:25:21.682Z,72.77
2022-12-15T12:27:57.251Z,73.25
2022-12-15T12:30:28.175Z,73.58
2022-12-15T12:33:05.716Z,73.40
2022-12-15T12:35:39.238Z,73.73
2022-12-15T12:38:08.717Z,73.60
2022-12-15T12:40:46.992Z,73.65
2022-12-15T12:43:32.952Z,73.54
2022-12-15T12:46:09.476Z,73.16
2022-12-15T12:48:42.799Z,73.26
2022-12-15T12:51:26.916Z,73.44
2022-12-15T12:53:56.335Z,72.89
2022-12-15T12:56:40.133Z,73.14
2022-12-15T12:59:37.605Z,73.53
2022-12-15T13:02:39.125Z,73.80
2022-12-15T13:08:28.747Z,73.30
2022-12-15T13:10:59.456Z,73.75
2022-12-15T13:13:42.134Z,73.62
2022-12-15T13:16:13.694Z,74.08
2022-12-15T13:19:02.138Z,73.59
2022-12-15T13:21:56.721Z,74.08
2022-12-15T13:24:36.804Z,74.52
2022-12-15T13:27:11.558Z,74.09
2022-12-15T13:29:55.753Z,74.52
2022-12-15T13:32:34.124Z,73.95
2022-12-15T13:35:18.071Z,74.33
2022-12-15T13:37:51.091Z,74.52
2022-12-15T13:40:52.367Z,74.07
2022-12-15T13:43:41.311Z,74.15
2022-12-15T13:46:16.381Z,74.13
2022-12-15T13:48:49.292Z,72.97
2022-12-15T13:51:33.776Z,73.65
2022-12-15T13:54:05.505Z,73.41
2022-12-15T13:56:54.906Z,73.49
2022-12-15T13:59:32.068Z,73.79
2022-12-15T14:02:00.756Z,73.27
2022-12-15T14:04:29.228Z,73.97
2022-12-15T14:07:00.861Z,73.38
2022-12-15T14:09:32.269Z,73.74
2022-12-15T14:12:04.016Z,73.05
2022-12-15T14:14:35.161Z,73.20
2022-12-15T14:17:05.181Z,74.20
2022-12-15T14:19:41.938Z,72.83
2022-12-15T14:22:29.500Z,72.42
2022-12-15T14:25:03.632Z,72.71
2022-12-15T14:27:35.407Z,72.42
2022-12-15T14:30:25.621Z,71.83
2022-12-15T14:32:57.663Z,72.01
2022-12-15T14:35:32.507Z,72.62
2022-12-15T14:38:03.832Z,72.62
2022-12-15T14:40:32.751Z,71.86
2022-12-15T14:43:06.416Z,72.38
2022-12-15T14:45:35.774Z,72.94
2022-12-15T14:48:40.052Z,73.01
2022-12-15T14:51:05.553Z,72.24
2022-12-15T14:53:38.648Z,72.83
2022-12-15T14:56:30.054Z,71.96
2022-12-15T14:59:04.376Z,72.72
2022-12-15T15:01:41.844Z,71.60
2022-12-15T15:04:25.316Z,72.57
2022-12-15T15:06:57.655Z,72.05
2022-12-15T15:09:30.495Z,71.48
2022-12-15T15:12:02.605Z,71.83
2022-12-15T15:14:35.114Z,71.57
2022-12-15T15:17:10.639Z,71.58
2022-12-15T15:19:41.860Z,72.15
2022-12-15T15:22:25.977Z,72.92
2022-12-15T15:24:54.963Z,73.76
2022-12-15T15:27:31.346Z,74.42
2022-12-15T15:30:21.694Z,75.33
2022-12-15T15:32:55.673Z,75.93
2022-12-15T15:35:26.515Z,76.47
2022-12-15T15:38:05.317Z,77.14
2022-12-15T15:40:34.572Z,78.01
2022-12-15T15:43:06.602Z,78.06
2022-12-15T15:45:36.975Z,79.04
2022-12-15T15:48:07.797Z,79.71
2022-12-15T15:50:44.134Z,79.84
2022-12-15T15:53:23.455Z,79.64
2022-12-15T15:55:56.650Z,80.41
2022-12-15T15:58:30.917Z,80.26
2022-12-15T16:01:06.763Z,80.78
2022-12-15T16:03:38.480Z,82.62
2022-12-15T16:06:08.692Z,82.20
2022-12-15T16:08:38.457Z,80.91
2022-12-15T16:11:07.534Z,81.80
2022-12-15T16:13:36.421Z,81.71
2022-12-15T16:16:07.058Z,82.45
2022-12-15T16:18:38.316Z,83.11
2022-12-15T16:21:11.576Z,83.32
2022-12-15T16:23:40.178Z,83.40
2022-12-15T16:26:18.088Z,82.68
2022-12-15T16:28:46.678Z,82.92
2022-12-15T16:31:17.878Z,83.01
2022-12-15T16:33:46.685Z,83.43
2022-12-15T16:36:15.766Z,82.69
2022-12-15T16:38:45.257Z,82.27
2022-12-15T16:41:17.000Z,83.41
2022-12-15T16:43:48.141Z,83.85
2022-12-15T16:46:22.024Z,83.81
2022-12-15T16:48:51.842Z,84.40
2022-12-15T16:51:35.075Z,84.38
2022-12-15T16:54:04.833Z,84.51
2022-12-15T16:56:33.600Z,84.05
2022-12-15T16:59:31.486Z,83.80
2022-12-15T17:01:52.650Z,84.00
2022-12-15T17:04:21.676Z,84.35
2022-12-15T17:06:53.363Z,83.21
2022-12-15T17:09:24.126Z,83.20
2022-12-15T17:11:53.262Z,83.70
2022-12-15T17:14:22.034Z,82.99
2022-12-15T17:16:52.304Z,83.02
2022-12-15T17:19:21.558Z,82.74
2022-12-15T17:21:52.164Z,83.04
2022-12-15T17:24:24.810Z,82.65
2022-12-15T17:26:53.893Z,81.97
2022-12-15T17:29:42.889Z,81.82
2022-12-15T17:32:14.461Z,81.83
2022-12-15T17:34:43.757Z,81.18
2022-12-15T17:37:14.575Z,81.49
2022-12-15T17:39:54.188Z,80.37
2022-12-15T17:42:24.285Z,80.44
2022-12-15T17:44:53.084Z,80.21
2022-12-15T17:47:24.325Z,80.40
2022-12-15T17:49:52.920Z,80.18
2022-12-15T17:52:28.781Z,80.09
2022-12-15T17:54:57.592Z,79.89
2022-12-15T17:57:26.095Z,80.09
2022-12-15T17:59:57.056Z,80.54
2022-12-15T18:02:29.730Z,79.77
2022-12-15T18:05:00.593Z,79.82
2022-12-15T18:07:30.688Z,79.93
2022-12-15T18:09:59.229Z,80.42
2022-12-15T18:12:28.662Z,80.95
2022-12-15T18:14:57.566Z,80.81
2022-12-15T18:17:28.467Z,80.77
2022-12-15T18:19:56.983Z,80.95
2022-12-15T18:22:27.523Z,80.45
2022-12-15T18:24:58.342Z,81.53
2022-12-15T18:27:28.692Z,81.29
2022-12-15T18:29:59.347Z,81.40
2022-12-15T18:32:30.890Z,82.00
2022-12-15T18:35:00.809Z,82.14
2022-12-15T18:37:36.029Z,82.78
2022-12-15T18:40:07.484Z,82.57
2022-12-15T18:42:36.387Z,82.70
2022-12-15T18:45:06.636Z,83.08
2022-12-15T18:47:40.033Z,83.17
2022-12-15T18:50:15.875Z,82.87
2022-12-15T18:52:45.304Z,84.02
2022-12-15T18:55:20.179Z,83.73
2022-12-15T18:57:49.891Z,83.71
2022-12-15T19:00:25.570Z,83.69
2022-12-15T19:02:57.646Z,82.25
2022-12-15T19:05:36.938Z,81.19
2022-12-15T19:08:10.229Z,80.41
2022-12-15T19:10:42.101Z,80.22
2022-12-15T19:13:14.898Z,79.12
2022-12-15T19:15:44.101Z,79.13
2022-12-15T19:18:33.956Z,78.54
2022-12-15T19:21:30.931Z,78.60
2022-12-15T19:23:59.504Z,78.54
2022-12-15T19:26:28.161Z,78.30
2022-12-15T19:28:57.440Z,78.39
2022-12-15T19:31:25.990Z,78.34
2022-12-15T19:34:11.121Z,78.21
2022-12-15T19:36:42.243Z,78.43
2022-12-15T19:39:19.802Z,78.00
2022-12-15T19:41:51.788Z,77.73
2022-12-15T19:44:20.851Z,78.10
2022-12-15T19:46:50.006Z,78.08
2022-12-15T19:49:23.167Z,78.27
2022-12-15T19:51:54.389Z,78.88
2022-12-15T19:54:31.514Z,80.08
2022-12-15T19:57:00.563Z,80.67
2022-12-15T19:59:32.006Z,80.61
2022-12-15T20:02:03.539Z,80.27
2022-12-15T20:04:34.253Z,80.37
2022-12-15T20:07:04.180Z,80.23
2022-12-15T20:09:33.013Z,80.30
2022-12-15T20:12:01.736Z,80.46
2022-12-15T20:14:32.957Z,80.34
2022-12-15T20:17:04.246Z,80.74
2022-12-15T20:19:34.533Z,80.77
2022-12-15T20:22:06.852Z,81.09
2022-12-15T20:24:37.933Z,80.86
2022-12-15T20:27:13.205Z,81.07
2022-12-15T20:29:42.950Z,80.72
2022-12-15T20:32:21.823Z,80.60
2022-12-15T20:34:53.355Z,80.66
2022-12-15T20:37:35.019Z,80.21
2022-12-15T20:40:06.472Z,80.36
2022-12-15T20:42:35.216Z,79.54
2022-12-15T20:45:06.298Z,80.06
2022-12-15T20:47:36.122Z,80.51
2022-12-15T20:50:27.449Z,81.27
2022-12-15T20:52:56.124Z,81.82
2022-12-15T20:55:26.805Z,82.30
2022-12-15T20:57:55.546Z,81.99
2022-12-15T21:00:24.783Z,82.11
2022-12-15T21:02:55.239Z,82.07
2022-12-15T21:05:27.318Z,81.79
2022-12-15T21:07:56.004Z,81.78
2022-12-15T21:10:29.121Z,81.27
2022-12-15T21:12:58.079Z,81.81
2022-12-15T21:15:26.694Z,82.15
2022-12-15T21:18:11.270Z,82.24
2022-12-15T21:20:53.827Z,82.38
2022-12-15T21:23:25.886Z,82.90
2022-12-15T21:25:58.653Z,82.55
2022-12-15T21:28:27.993Z,82.32
2022-12-15T21:30:59.036Z,82.61
2022-12-15T21:33:33.555Z,82.47
2022-12-15T21:36:03.507Z,82.47
2022-12-15T21:38:34.522Z,82.51
2022-12-15T21:41:04.914Z,82.12
2022-12-15T21:43:36.962Z,82.43
2022-12-15T21:46:16.116Z,82.57
2022-12-15T21:49:02.614Z,82.01
2022-12-15T21:51:35.768Z,81.49
2022-12-15T21:54:04.921Z,81.70
2022-12-15T21:56:33.591Z,81.28
2022-12-15T21:59:02.253Z,81.61
2022-12-15T22:01:32.514Z,81.39
2022-12-15T22:04:03.063Z,81.24
2022-12-15T22:06:32.934Z,81.19
2022-12-15T22:09:01.474Z,81.29
2022-12-15T22:11:30.923Z,81.35
2022-12-15T22:14:02.043Z,80.95
2022-12-15T22:16:30.590Z,81.00
2022-12-15T22:18:59.904Z,80.90
2022-12-15T22:21:28.681Z,80.76
2022-12-15T22:23:58.503Z,80.48
2022-12-15T22:26:30.926Z,80.07
2022-12-15T22:29:03.185Z,79.59
2022-12-15T22:31:34.855Z,79.95
2022-12-15T22:34:07.612Z,80.16
2022-12-15T22:36:41.168Z,80.35
2022-12-15T22:39:11.343Z,80.60
2022-12-15T22:41:41.396Z,80.65
2022-12-15T22:44:17.457Z,80.76
2022-12-15T22:46:47.183Z,80.69
2022-12-15T22:49:19.217Z,80.78
2022-12-15T22:51:49.876Z,80.80
2022-12-15T22:54:21.605Z,81.60
2022-12-15T22:56:58.566Z,81.93
2022-12-15T22:59:30.256Z,82.21
2022-12-15T23:02:02.426Z,82.66
2022-12-15T23:04:31.196Z,82.02
2022-12-15T23:07:00.926Z,82.51
2022-12-15T23:09:31.274Z,82.00
2022-12-15T23:11:59.323Z,81.57
2022-12-15T23:14:41.674Z,81.58
2022-12-15T23:17:13.342Z,81.51
2022-12-15T23:19:47.115Z,81.04
2022-12-15T23:22:16.050Z,81.19
2022-12-15T23:24:47.774Z,80.86
2022-12-15T23:27:16.238Z,81.21
2022-12-15T23:29:50.478Z,80.20
2022-12-15T23:32:20.191Z,80.59
2022-12-15T23:34:48.614Z,80.33
2022-12-15T23:37:17.252Z,80.64
2022-12-15T23:39:47.147Z,80.49
2022-12-15T23:42:15.484Z,79.96
2022-12-15T23:44:46.348Z,80.07
2022-12-15T23:47:15.206Z,80.24
2022-12-15T23:49:43.616Z,80.36
2022-12-15T23:52:12.821Z,80.52
2022-12-15T23:54:41.219Z,80.42
2022-12-15T23:57:13.330Z,80.66
2022-12-15T23:59:41.664Z,80.55
